sensor_id;sensor_type;location;lat;lon;timestamp;P1;durP1;ratioP1;P2;durP2;ratioP2
61569;SDS011;47462;59.172;17.196;2024-01-30T00:01:42;39.17;;;10.87;;
61569;SDS011;47462;59.172;17.196;2024-01-30T00:04:07;36.83;;;10.90;;
61569;SDS011;47462;59.172;17.196;2024-01-30T00:06:32;46.37;;;12.17;;
61569;SDS011;47462;59.172;17.196;2024-01-30T00:08:58;39.03;;;11.87;;
61569;SDS011;47462;59.172;17.196;2024-01-30T00:11:23;50.97;;;13.27;;
61569;SDS011;47462;59.172;17.196;2024-01-30T00:13:50;48.53;;;13.07;;
61569;SDS011;47462;59.172;17.196;2024-01-30T00:16:20;56.65;;;13.73;;
61569;SDS011;47462;59.172;17.196;2024-01-30T00:18:46;50.55;;;14.30;;
61569;SDS011;47462;59.172;17.196;2024-01-30T00:21:11;52.77;;;14.47;;
61569;SDS011;47462;59.172;17.196;2024-01-30T00:23:37;51.80;;;12.53;;
61569;SDS011;47462;59.172;17.196;2024-01-30T00:26:02;44.42;;;11.40;;
61569;SDS011;47462;59.172;17.196;2024-01-30T00:28:28;72.47;;;13.30;;
61569;SDS011;47462;59.172;17.196;2024-01-30T00:30:53;46.53;;;11.57;;
61569;SDS011;47462;59.172;17.196;2024-01-30T00:33:19;65.15;;;11.85;;
61569;SDS011;47462;59.172;17.196;2024-01-30T00:35:44;80.40;;;12.70;;
61569;SDS011;47462;59.172;17.196;2024-01-30T00:38:09;64.00;;;13.80;;
61569;SDS011;47462;59.172;17.196;2024-01-30T00:40:35;58.30;;;12.70;;
61569;SDS011;47462;59.172;17.196;2024-01-30T00:43:00;64.83;;;13.70;;
61569;SDS011;47462;59.172;17.196;2024-01-30T00:45:25;54.37;;;12.30;;
61569;SDS011;47462;59.172;17.196;2024-01-30T00:47:51;76.63;;;11.67;;
61569;SDS011;47462;59.172;17.196;2024-01-30T00:50:16;56.57;;;11.63;;
61569;SDS011;47462;59.172;17.196;2024-01-30T00:52:41;100.00;;;14.97;;
61569;SDS011;47462;59.172;17.196;2024-01-30T00:55:09;104.43;;;12.15;;
61569;SDS011;47462;59.172;17.196;2024-01-30T00:57:36;92.20;;;12.23;;
61569;SDS011;47462;59.172;17.196;2024-01-30T01:00:01;68.70;;;12.43;;
61569;SDS011;47462;59.172;17.196;2024-01-30T01:02:28;159.85;;;14.48;;
61569;SDS011;47462;59.172;17.196;2024-01-30T01:04:53;104.30;;;13.38;;
61569;SDS011;47462;59.172;17.196;2024-01-30T01:07:19;70.55;;;11.82;;
61569;SDS011;47462;59.172;17.196;2024-01-30T01:09:44;76.57;;;12.87;;
61569;SDS011;47462;59.172;17.196;2024-01-30T01:12:09;66.83;;;11.67;;
61569;SDS011;47462;59.172;17.196;2024-01-30T01:14:35;68.87;;;13.43;;
61569;SDS011;47462;59.172;17.196;2024-01-30T01:17:01;96.82;;;13.40;;
61569;SDS011;47462;59.172;17.196;2024-01-30T01:19:26;71.55;;;11.93;;
61569;SDS011;47462;59.172;17.196;2024-01-30T01:21:52;53.73;;;12.50;;
61569;SDS011;47462;59.172;17.196;2024-01-30T01:24:18;180.50;;;15.90;;
61569;SDS011;47462;59.172;17.196;2024-01-30T01:26:43;82.30;;;11.23;;
61569;SDS011;47462;59.172;17.196;2024-01-30T01:29:09;51.13;;;12.50;;
61569;SDS011;47462;59.172;17.196;2024-01-30T01:31:38;55.67;;;12.20;;
61569;SDS011;47462;59.172;17.196;2024-01-30T01:34:11;79.22;;;12.18;;
61569;SDS011;47462;59.172;17.196;2024-01-30T01:36:37;60.35;;;13.10;;
61569;SDS011;47462;59.172;17.196;2024-01-30T01:39:03;66.32;;;12.27;;
61569;SDS011;47462;59.172;17.196;2024-01-30T01:41:30;72.03;;;11.40;;
61569;SDS011;47462;59.172;17.196;2024-01-30T01:43:56;67.20;;;11.73;;
61569;SDS011;47462;59.172;17.196;2024-01-30T01:46:22;94.63;;;12.03;;
61569;SDS011;47462;59.172;17.196;2024-01-30T01:48:47;76.75;;;10.95;;
61569;SDS011;47462;59.172;17.196;2024-01-30T01:51:13;81.20;;;10.10;;
61569;SDS011;47462;59.172;17.196;2024-01-30T01:53:39;57.50;;;8.85;;
61569;SDS011;47462;59.172;17.196;2024-01-30T01:56:05;44.03;;;8.57;;
61569;SDS011;47462;59.172;17.196;2024-01-30T01:58:31;37.22;;;9.77;;
61569;SDS011;47462;59.172;17.196;2024-01-30T02:00:56;32.35;;;9.02;;
61569;SDS011;47462;59.172;17.196;2024-01-30T02:03:24;61.95;;;9.60;;
61569;SDS011;47462;59.172;17.196;2024-01-30T02:05:50;73.83;;;10.33;;
61569;SDS011;47462;59.172;17.196;2024-01-30T02:08:16;85.25;;;10.20;;
61569;SDS011;47462;59.172;17.196;2024-01-30T02:10:41;65.28;;;10.40;;
61569;SDS011;47462;59.172;17.196;2024-01-30T02:13:06;51.07;;;9.90;;
61569;SDS011;47462;59.172;17.196;2024-01-30T02:15:32;32.67;;;8.77;;
61569;SDS011;47462;59.172;17.196;2024-01-30T02:17:57;40.97;;;9.90;;
61569;SDS011;47462;59.172;17.196;2024-01-30T02:20:23;36.73;;;10.17;;
61569;SDS011;47462;59.172;17.196;2024-01-30T02:22:49;30.23;;;9.05;;
61569;SDS011;47462;59.172;17.196;2024-01-30T02:25:17;51.63;;;9.73;;
61569;SDS011;47462;59.172;17.196;2024-01-30T02:27:43;31.37;;;9.60;;
61569;SDS011;47462;59.172;17.196;2024-01-30T02:30:08;41.17;;;9.57;;
61569;SDS011;47462;59.172;17.196;2024-01-30T02:32:34;29.98;;;9.20;;
61569;SDS011;47462;59.172;17.196;2024-01-30T02:34:59;28.03;;;11.00;;
61569;SDS011;47462;59.172;17.196;2024-01-30T02:37:25;30.47;;;9.20;;
61569;SDS011;47462;59.172;17.196;2024-01-30T02:39:50;59.55;;;10.18;;
61569;SDS011;47462;59.172;17.196;2024-01-30T02:42:16;38.10;;;8.37;;
61569;SDS011;47462;59.172;17.196;2024-01-30T02:44:41;35.27;;;10.00;;
61569;SDS011;47462;59.172;17.196;2024-01-30T02:47:06;32.67;;;10.13;;
61569;SDS011;47462;59.172;17.196;2024-01-30T02:49:32;28.50;;;9.27;;
61569;SDS011;47462;59.172;17.196;2024-01-30T02:51:57;26.93;;;9.17;;
61569;SDS011;47462;59.172;17.196;2024-01-30T02:54:22;35.73;;;9.17;;
61569;SDS011;47462;59.172;17.196;2024-01-30T02:56:48;35.70;;;9.07;;
61569;SDS011;47462;59.172;17.196;2024-01-30T02:59:13;39.80;;;10.05;;
61569;SDS011;47462;59.172;17.196;2024-01-30T03:01:44;31.08;;;10.15;;
61569;SDS011;47462;59.172;17.196;2024-01-30T03:04:11;53.78;;;10.85;;
61569;SDS011;47462;59.172;17.196;2024-01-30T03:06:36;55.33;;;9.83;;
61569;SDS011;47462;59.172;17.196;2024-01-30T03:09:02;33.03;;;9.90;;
61569;SDS011;47462;59.172;17.196;2024-01-30T03:11:28;34.00;;;8.65;;
61569;SDS011;47462;59.172;17.196;2024-01-30T03:13:53;28.37;;;8.70;;
61569;SDS011;47462;59.172;17.196;2024-01-30T03:16:18;28.80;;;9.13;;
61569;SDS011;47462;59.172;17.196;2024-01-30T03:18:44;29.87;;;9.53;;
61569;SDS011;47462;59.172;17.196;2024-01-30T03:21:09;26.80;;;9.87;;
61569;SDS011;47462;59.172;17.196;2024-01-30T03:23:34;27.43;;;9.03;;
61569;SDS011;47462;59.172;17.196;2024-01-30T03:26:00;32.13;;;8.43;;
61569;SDS011;47462;59.172;17.196;2024-01-30T03:28:25;26.73;;;8.70;;
61569;SDS011;47462;59.172;17.196;2024-01-30T03:30:51;24.48;;;9.13;;
61569;SDS011;47462;59.172;17.196;2024-01-30T03:33:16;28.03;;;9.43;;
61569;SDS011;47462;59.172;17.196;2024-01-30T03:35:42;24.97;;;7.90;;
61569;SDS011;47462;59.172;17.196;2024-01-30T03:38:08;18.63;;;8.68;;
61569;SDS011;47462;59.172;17.196;2024-01-30T03:40:33;18.93;;;8.23;;
61569;SDS011;47462;59.172;17.196;2024-01-30T03:42:58;20.67;;;8.43;;
61569;SDS011;47462;59.172;17.196;2024-01-30T03:45:24;20.23;;;8.93;;
61569;SDS011;47462;59.172;17.196;2024-01-30T03:47:49;27.33;;;8.10;;
61569;SDS011;47462;59.172;17.196;2024-01-30T03:50:14;17.43;;;7.63;;
61569;SDS011;47462;59.172;17.196;2024-01-30T03:52:39;59.97;;;9.30;;
61569;SDS011;47462;59.172;17.196;2024-01-30T03:55:05;19.93;;;8.00;;
61569;SDS011;47462;59.172;17.196;2024-01-30T03:57:30;17.35;;;6.93;;
61569;SDS011;47462;59.172;17.196;2024-01-30T03:59:56;30.00;;;7.20;;
61569;SDS011;47462;59.172;17.196;2024-01-30T04:02:21;12.63;;;6.57;;
61569;SDS011;47462;59.172;17.196;2024-01-30T04:04:46;13.27;;;6.67;;
61569;SDS011;47462;59.172;17.196;2024-01-30T04:07:12;21.30;;;6.60;;
61569;SDS011;47462;59.172;17.196;2024-01-30T04:09:38;18.63;;;6.57;;
61569;SDS011;47462;59.172;17.196;2024-01-30T04:12:03;15.73;;;5.68;;
61569;SDS011;47462;59.172;17.196;2024-01-30T04:14:29;13.23;;;6.60;;
61569;SDS011;47462;59.172;17.196;2024-01-30T04:16:54;13.53;;;6.23;;
61569;SDS011;47462;59.172;17.196;2024-01-30T04:19:19;16.87;;;6.80;;
61569;SDS011;47462;59.172;17.196;2024-01-30T04:21:45;25.20;;;6.17;;
61569;SDS011;47462;59.172;17.196;2024-01-30T04:24:10;11.88;;;6.90;;
61569;SDS011;47462;59.172;17.196;2024-01-30T04:26:35;8.60;;;6.23;;
61569;SDS011;47462;59.172;17.196;2024-01-30T04:29:02;32.80;;;6.97;;
61569;SDS011;47462;59.172;17.196;2024-01-30T04:31:27;16.25;;;6.35;;
61569;SDS011;47462;59.172;17.196;2024-01-30T04:33:53;17.53;;;6.27;;
61569;SDS011;47462;59.172;17.196;2024-01-30T04:36:18;18.13;;;6.25;;
61569;SDS011;47462;59.172;17.196;2024-01-30T04:38:44;19.63;;;7.17;;
61569;SDS011;47462;59.172;17.196;2024-01-30T04:41:09;27.90;;;7.00;;
61569;SDS011;47462;59.172;17.196;2024-01-30T04:43:35;12.95;;;7.53;;
61569;SDS011;47462;59.172;17.196;2024-01-30T04:46:01;16.33;;;6.40;;
61569;SDS011;47462;59.172;17.196;2024-01-30T04:48:26;24.20;;;6.70;;
61569;SDS011;47462;59.172;17.196;2024-01-30T04:50:52;79.95;;;8.20;;
61569;SDS011;47462;59.172;17.196;2024-01-30T04:53:17;26.17;;;6.93;;
61569;SDS011;47462;59.172;17.196;2024-01-30T04:55:44;21.90;;;6.60;;
61569;SDS011;47462;59.172;17.196;2024-01-30T04:58:09;9.53;;;6.67;;
61569;SDS011;47462;59.172;17.196;2024-01-30T05:00:34;26.30;;;6.65;;
61569;SDS011;47462;59.172;17.196;2024-01-30T05:03:00;24.63;;;6.40;;
61569;SDS011;47462;59.172;17.196;2024-01-30T05:05:25;20.57;;;6.47;;
61569;SDS011;47462;59.172;17.196;2024-01-30T05:07:51;15.23;;;6.68;;
61569;SDS011;47462;59.172;17.196;2024-01-30T05:10:16;16.70;;;7.33;;
61569;SDS011;47462;59.172;17.196;2024-01-30T05:12:41;31.57;;;6.80;;
61569;SDS011;47462;59.172;17.196;2024-01-30T05:15:07;34.97;;;6.63;;
61569;SDS011;47462;59.172;17.196;2024-01-30T05:17:33;53.97;;;9.70;;
61569;SDS011;47462;59.172;17.196;2024-01-30T05:19:58;52.03;;;9.63;;
61569;SDS011;47462;59.172;17.196;2024-01-30T05:22:24;17.90;;;9.23;;
61569;SDS011;47462;59.172;17.196;2024-01-30T05:24:49;12.53;;;7.03;;
61569;SDS011;47462;59.172;17.196;2024-01-30T05:27:15;17.58;;;6.40;;
61569;SDS011;47462;59.172;17.196;2024-01-30T05:29:40;20.17;;;6.83;;
61569;SDS011;47462;59.172;17.196;2024-01-30T05:32:06;45.40;;;6.90;;
61569;SDS011;47462;59.172;17.196;2024-01-30T05:34:31;31.65;;;6.07;;
61569;SDS011;47462;59.172;17.196;2024-01-30T05:36:57;19.95;;;6.00;;
61569;SDS011;47462;59.172;17.196;2024-01-30T05:39:23;20.85;;;5.75;;
61569;SDS011;47462;59.172;17.196;2024-01-30T05:41:48;23.03;;;5.43;;
61569;SDS011;47462;59.172;17.196;2024-01-30T05:44:13;22.40;;;6.10;;
61569;SDS011;47462;59.172;17.196;2024-01-30T05:46:39;12.73;;;5.63;;
61569;SDS011;47462;59.172;17.196;2024-01-30T05:49:04;20.30;;;5.97;;
61569;SDS011;47462;59.172;17.196;2024-01-30T05:51:29;32.40;;;6.07;;
61569;SDS011;47462;59.172;17.196;2024-01-30T05:53:55;31.13;;;6.10;;
61569;SDS011;47462;59.172;17.196;2024-01-30T05:56:20;17.27;;;5.90;;
61569;SDS011;47462;59.172;17.196;2024-01-30T05:58:45;18.13;;;5.90;;
61569;SDS011;47462;59.172;17.196;2024-01-30T06:01:11;22.10;;;5.95;;
61569;SDS011;47462;59.172;17.196;2024-01-30T06:03:36;26.17;;;6.60;;
61569;SDS011;47462;59.172;17.196;2024-01-30T06:06:02;24.48;;;6.20;;
61569;SDS011;47462;59.172;17.196;2024-01-30T06:08:27;12.65;;;6.00;;
61569;SDS011;47462;59.172;17.196;2024-01-30T06:10:52;21.40;;;6.07;;
61569;SDS011;47462;59.172;17.196;2024-01-30T06:13:18;17.03;;;5.70;;
61569;SDS011;47462;59.172;17.196;2024-01-30T06:15:43;28.57;;;6.27;;
61569;SDS011;47462;59.172;17.196;2024-01-30T06:18:09;13.43;;;6.13;;
61569;SDS011;47462;59.172;17.196;2024-01-30T06:20:34;18.30;;;6.40;;
61569;SDS011;47462;59.172;17.196;2024-01-30T06:22:59;14.50;;;6.57;;
61569;SDS011;47462;59.172;17.196;2024-01-30T06:25:25;23.50;;;5.70;;
61569;SDS011;47462;59.172;17.196;2024-01-30T06:27:52;18.70;;;6.28;;
61569;SDS011;47462;59.172;17.196;2024-01-30T06:30:18;36.67;;;5.60;;
61569;SDS011;47462;59.172;17.196;2024-01-30T06:32:43;26.50;;;6.23;;
61569;SDS011;47462;59.172;17.196;2024-01-30T06:35:09;9.50;;;5.95;;
61569;SDS011;47462;59.172;17.196;2024-01-30T06:37:35;13.93;;;6.35;;
61569;SDS011;47462;59.172;17.196;2024-01-30T06:42:27;11.85;;;5.95;;
61569;SDS011;47462;59.172;17.196;2024-01-30T06:44:52;14.03;;;5.40;;
61569;SDS011;47462;59.172;17.196;2024-01-30T06:47:18;12.40;;;6.03;;
61569;SDS011;47462;59.172;17.196;2024-01-30T06:49:43;12.10;;;5.47;;
61569;SDS011;47462;59.172;17.196;2024-01-30T06:52:09;8.30;;;5.85;;
61569;SDS011;47462;59.172;17.196;2024-01-30T06:54:37;8.93;;;5.90;;
61569;SDS011;47462;59.172;17.196;2024-01-30T06:57:04;9.57;;;5.75;;
61569;SDS011;47462;59.172;17.196;2024-01-30T06:59:33;10.30;;;5.35;;
61569;SDS011;47462;59.172;17.196;2024-01-30T07:01:59;12.13;;;5.57;;
61569;SDS011;47462;59.172;17.196;2024-01-30T07:04:24;10.93;;;5.40;;
61569;SDS011;47462;59.172;17.196;2024-01-30T07:06:50;8.17;;;4.17;;
61569;SDS011;47462;59.172;17.196;2024-01-30T07:09:15;8.27;;;4.83;;
61569;SDS011;47462;59.172;17.196;2024-01-30T07:11:40;9.37;;;4.80;;
61569;SDS011;47462;59.172;17.196;2024-01-30T07:14:05;10.33;;;4.70;;
61569;SDS011;47462;59.172;17.196;2024-01-30T07:16:32;7.68;;;4.80;;
61569;SDS011;47462;59.172;17.196;2024-01-30T07:18:58;7.53;;;4.90;;
61569;SDS011;47462;59.172;17.196;2024-01-30T07:21:23;9.73;;;4.73;;
61569;SDS011;47462;59.172;17.196;2024-01-30T07:23:53;7.95;;;5.32;;
61569;SDS011;47462;59.172;17.196;2024-01-30T07:26:19;7.55;;;5.13;;
61569;SDS011;47462;59.172;17.196;2024-01-30T07:28:45;8.43;;;4.88;;
61569;SDS011;47462;59.172;17.196;2024-01-30T07:31:10;10.93;;;4.60;;
61569;SDS011;47462;59.172;17.196;2024-01-30T07:33:36;6.83;;;4.73;;
61569;SDS011;47462;59.172;17.196;2024-01-30T07:36:01;7.00;;;4.77;;
61569;SDS011;47462;59.172;17.196;2024-01-30T07:38:26;8.13;;;4.80;;
61569;SDS011;47462;59.172;17.196;2024-01-30T07:40:51;9.57;;;4.57;;
61569;SDS011;47462;59.172;17.196;2024-01-30T07:43:17;11.30;;;5.43;;
61569;SDS011;47462;59.172;17.196;2024-01-30T07:45:42;7.97;;;4.70;;
61569;SDS011;47462;59.172;17.196;2024-01-30T07:48:08;9.80;;;4.97;;
61569;SDS011;47462;59.172;17.196;2024-01-30T07:50:33;9.40;;;5.53;;
61569;SDS011;47462;59.172;17.196;2024-01-30T07:52:59;15.97;;;5.83;;
61569;SDS011;47462;59.172;17.196;2024-01-30T07:55:26;16.35;;;4.90;;
61569;SDS011;47462;59.172;17.196;2024-01-30T07:57:56;26.55;;;5.75;;
61569;SDS011;47462;59.172;17.196;2024-01-30T08:00:22;21.20;;;6.00;;
61569;SDS011;47462;59.172;17.196;2024-01-30T08:05:14;20.48;;;8.05;;
61569;SDS011;47462;59.172;17.196;2024-01-30T08:10:06;22.35;;;6.38;;
61569;SDS011;47462;59.172;17.196;2024-01-30T08:12:31;34.80;;;6.32;;
61569;SDS011;47462;59.172;17.196;2024-01-30T08:14:57;38.17;;;6.23;;
61569;SDS011;47462;59.172;17.196;2024-01-30T08:17:22;16.17;;;5.35;;
61569;SDS011;47462;59.172;17.196;2024-01-30T08:19:48;29.63;;;5.57;;
61569;SDS011;47462;59.172;17.196;2024-01-30T08:22:14;20.03;;;6.80;;
61569;SDS011;47462;59.172;17.196;2024-01-30T08:24:40;16.93;;;6.10;;
61569;SDS011;47462;59.172;17.196;2024-01-30T08:27:06;24.38;;;7.70;;
61569;SDS011;47462;59.172;17.196;2024-01-30T08:29:34;63.47;;;8.65;;
61569;SDS011;47462;59.172;17.196;2024-01-30T08:31:59;50.70;;;7.90;;
61569;SDS011;47462;59.172;17.196;2024-01-30T08:34:25;127.70;;;11.20;;
61569;SDS011;47462;59.172;17.196;2024-01-30T08:36:51;132.82;;;11.00;;
61569;SDS011;47462;59.172;17.196;2024-01-30T08:39:16;90.13;;;10.17;;
61569;SDS011;47462;59.172;17.196;2024-01-30T08:41:41;83.03;;;7.80;;
61569;SDS011;47462;59.172;17.196;2024-01-30T08:44:07;151.83;;;11.00;;
61569;SDS011;47462;59.172;17.196;2024-01-30T08:46:32;28.58;;;6.40;;
61569;SDS011;47462;59.172;17.196;2024-01-30T08:48:57;50.37;;;7.83;;
61569;SDS011;47462;59.172;17.196;2024-01-30T08:51:23;56.27;;;9.30;;
61569;SDS011;47462;59.172;17.196;2024-01-30T08:53:48;71.80;;;8.10;;
61569;SDS011;47462;59.172;17.196;2024-01-30T08:56:13;96.13;;;8.30;;
61569;SDS011;47462;59.172;17.196;2024-01-30T08:58:41;30.95;;;6.93;;
61569;SDS011;47462;59.172;17.196;2024-01-30T09:01:07;61.40;;;7.80;;
61569;SDS011;47462;59.172;17.196;2024-01-30T09:03:32;34.90;;;6.40;;
61569;SDS011;47462;59.172;17.196;2024-01-30T09:05:58;24.52;;;5.95;;
61569;SDS011;47462;59.172;17.196;2024-01-30T09:08:23;46.40;;;6.63;;
61569;SDS011;47462;59.172;17.196;2024-01-30T09:10:48;23.73;;;6.30;;
61569;SDS011;47462;59.172;17.196;2024-01-30T09:13:15;49.42;;;6.22;;
61569;SDS011;47462;59.172;17.196;2024-01-30T09:15:41;24.40;;;5.88;;
61569;SDS011;47462;59.172;17.196;2024-01-30T09:18:07;32.92;;;7.28;;
61569;SDS011;47462;59.172;17.196;2024-01-30T09:20:32;22.25;;;5.95;;
61569;SDS011;47462;59.172;17.196;2024-01-30T09:22:57;31.13;;;6.00;;
61569;SDS011;47462;59.172;17.196;2024-01-30T09:25:23;44.80;;;6.43;;
61569;SDS011;47462;59.172;17.196;2024-01-30T09:27:48;58.80;;;6.83;;
61569;SDS011;47462;59.172;17.196;2024-01-30T09:30:14;48.25;;;7.07;;
61569;SDS011;47462;59.172;17.196;2024-01-30T09:32:39;37.27;;;7.33;;
61569;SDS011;47462;59.172;17.196;2024-01-30T09:35:05;48.90;;;7.32;;
61569;SDS011;47462;59.172;17.196;2024-01-30T09:37:31;43.15;;;6.82;;
61569;SDS011;47462;59.172;17.196;2024-01-30T09:39:56;32.30;;;6.50;;
61569;SDS011;47462;59.172;17.196;2024-01-30T09:42:27;18.77;;;6.75;;
61569;SDS011;47462;59.172;17.196;2024-01-30T09:45:03;24.80;;;6.63;;
61569;SDS011;47462;59.172;17.196;2024-01-30T09:47:36;19.30;;;6.53;;
61569;SDS011;47462;59.172;17.196;2024-01-30T09:50:09;39.05;;;6.90;;
61569;SDS011;47462;59.172;17.196;2024-01-30T09:52:35;24.05;;;6.18;;
61569;SDS011;47462;59.172;17.196;2024-01-30T09:57:27;18.20;;;6.32;;
61569;SDS011;47462;59.172;17.196;2024-01-30T09:59:53;28.08;;;7.80;;
61569;SDS011;47462;59.172;17.196;2024-01-30T10:02:19;23.98;;;6.75;;
61569;SDS011;47462;59.172;17.196;2024-01-30T10:04:46;117.72;;;8.57;;
61569;SDS011;47462;59.172;17.196;2024-01-30T10:07:16;108.55;;;8.75;;
61569;SDS011;47462;59.172;17.196;2024-01-30T10:09:42;59.95;;;7.20;;
61569;SDS011;47462;59.172;17.196;2024-01-30T10:12:11;52.75;;;7.68;;
61569;SDS011;47462;59.172;17.196;2024-01-30T10:14:38;56.65;;;8.20;;
61569;SDS011;47462;59.172;17.196;2024-01-30T10:17:09;25.23;;;7.18;;
61569;SDS011;47462;59.172;17.196;2024-01-30T10:19:37;25.35;;;7.45;;
61569;SDS011;47462;59.172;17.196;2024-01-30T10:22:03;24.58;;;7.45;;
61569;SDS011;47462;59.172;17.196;2024-01-30T10:24:29;36.58;;;7.45;;
61569;SDS011;47462;59.172;17.196;2024-01-30T10:26:55;75.10;;;7.97;;
61569;SDS011;47462;59.172;17.196;2024-01-30T10:29:20;18.70;;;7.30;;
61569;SDS011;47462;59.172;17.196;2024-01-30T10:31:46;69.28;;;7.90;;
61569;SDS011;47462;59.172;17.196;2024-01-30T10:34:29;34.17;;;7.78;;
61569;SDS011;47462;59.172;17.196;2024-01-30T10:36:59;43.08;;;7.85;;
61569;SDS011;47462;59.172;17.196;2024-01-30T10:42:03;30.83;;;7.25;;
61569;SDS011;47462;59.172;17.196;2024-01-30T10:44:30;84.50;;;8.93;;
61569;SDS011;47462;59.172;17.196;2024-01-30T10:47:03;325.25;;;14.95;;
61569;SDS011;47462;59.172;17.196;2024-01-30T10:49:33;58.60;;;8.52;;
61569;SDS011;47462;59.172;17.196;2024-01-30T10:51:59;111.10;;;8.85;;
61569;SDS011;47462;59.172;17.196;2024-01-30T10:54:25;177.07;;;10.93;;
61569;SDS011;47462;59.172;17.196;2024-01-30T10:56:52;32.17;;;6.90;;
61569;SDS011;47462;59.172;17.196;2024-01-30T10:59:18;127.75;;;9.88;;
61569;SDS011;47462;59.172;17.196;2024-01-30T11:01:45;31.48;;;8.95;;
61569;SDS011;47462;59.172;17.196;2024-01-30T11:04:11;59.03;;;8.43;;
61569;SDS011;47462;59.172;17.196;2024-01-30T11:06:42;41.63;;;7.93;;
61569;SDS011;47462;59.172;17.196;2024-01-30T11:09:10;57.70;;;8.27;;
61569;SDS011;47462;59.172;17.196;2024-01-30T11:11:56;255.82;;;13.23;;
61569;SDS011;47462;59.172;17.196;2024-01-30T11:14:26;64.82;;;8.30;;
61569;SDS011;47462;59.172;17.196;2024-01-30T11:16:56;244.25;;;12.82;;
61569;SDS011;47462;59.172;17.196;2024-01-30T11:19:23;207.32;;;11.30;;
61569;SDS011;47462;59.172;17.196;2024-01-30T11:21:52;56.78;;;7.75;;
61569;SDS011;47462;59.172;17.196;2024-01-30T11:24:19;24.98;;;7.38;;
61569;SDS011;47462;59.172;17.196;2024-01-30T11:26:47;87.82;;;9.57;;
61569;SDS011;47462;59.172;17.196;2024-01-30T11:29:26;106.57;;;10.88;;
61569;SDS011;47462;59.172;17.196;2024-01-30T11:31:56;164.88;;;10.95;;
61569;SDS011;47462;59.172;17.196;2024-01-30T11:34:23;56.03;;;8.75;;
61569;SDS011;47462;59.172;17.196;2024-01-30T11:36:52;147.43;;;10.02;;
61569;SDS011;47462;59.172;17.196;2024-01-30T11:39:24;97.35;;;8.93;;
61569;SDS011;47462;59.172;17.196;2024-01-30T11:41:50;95.43;;;9.55;;
61569;SDS011;47462;59.172;17.196;2024-01-30T11:44:19;38.35;;;7.75;;
61569;SDS011;47462;59.172;17.196;2024-01-30T11:46:46;106.00;;;10.60;;
61569;SDS011;47462;59.172;17.196;2024-01-30T11:49:14;33.65;;;9.05;;
61569;SDS011;47462;59.172;17.196;2024-01-30T11:51:41;126.82;;;10.48;;
61569;SDS011;47462;59.172;17.196;2024-01-30T11:54:07;137.02;;;11.10;;
61569;SDS011;47462;59.172;17.196;2024-01-30T11:56:33;31.25;;;8.40;;
61569;SDS011;47462;59.172;17.196;2024-01-30T11:58:58;166.20;;;10.97;;
61569;SDS011;47462;59.172;17.196;2024-01-30T12:01:25;318.02;;;14.93;;
61569;SDS011;47462;59.172;17.196;2024-01-30T12:03:51;33.22;;;8.55;;
61569;SDS011;47462;59.172;17.196;2024-01-30T12:06:17;189.95;;;12.18;;
61569;SDS011;47462;59.172;17.196;2024-01-30T12:08:43;304.92;;;15.32;;
61569;SDS011;47462;59.172;17.196;2024-01-30T12:11:09;217.57;;;12.75;;
61569;SDS011;47462;59.172;17.196;2024-01-30T12:13:35;150.18;;;11.70;;
61569;SDS011;47462;59.172;17.196;2024-01-30T12:16:01;118.68;;;14.52;;
61569;SDS011;47462;59.172;17.196;2024-01-30T12:18:26;53.03;;;11.80;;
61569;SDS011;47462;59.172;17.196;2024-01-30T12:21:01;118.37;;;11.93;;
61569;SDS011;47462;59.172;17.196;2024-01-30T12:23:27;163.98;;;12.02;;
61569;SDS011;47462;59.172;17.196;2024-01-30T12:25:53;96.50;;;9.73;;
61569;SDS011;47462;59.172;17.196;2024-01-30T12:28:19;39.08;;;9.20;;
61569;SDS011;47462;59.172;17.196;2024-01-30T12:33:15;120.55;;;11.48;;
61569;SDS011;47462;59.172;17.196;2024-01-30T12:35:46;41.90;;;9.07;;
61569;SDS011;47462;59.172;17.196;2024-01-30T12:38:12;88.15;;;9.85;;
61569;SDS011;47462;59.172;17.196;2024-01-30T12:43:04;167.73;;;11.32;;
61569;SDS011;47462;59.172;17.196;2024-01-30T12:45:29;113.20;;;9.93;;
61569;SDS011;47462;59.172;17.196;2024-01-30T12:47:55;32.33;;;8.73;;
61569;SDS011;47462;59.172;17.196;2024-01-30T12:50:20;150.13;;;11.03;;
61569;SDS011;47462;59.172;17.196;2024-01-30T12:52:45;97.73;;;10.37;;
61569;SDS011;47462;59.172;17.196;2024-01-30T12:55:11;45.00;;;8.80;;
61569;SDS011;47462;59.172;17.196;2024-01-30T12:57:36;27.20;;;8.63;;
61569;SDS011;47462;59.172;17.196;2024-01-30T13:00:04;62.30;;;9.52;;
61569;SDS011;47462;59.172;17.196;2024-01-30T13:02:33;95.00;;;9.82;;
61569;SDS011;47462;59.172;17.196;2024-01-30T13:05:02;70.90;;;8.80;;
61569;SDS011;47462;59.172;17.196;2024-01-30T13:07:29;35.97;;;9.38;;
61569;SDS011;47462;59.172;17.196;2024-01-30T13:09:55;36.10;;;8.95;;
61569;SDS011;47462;59.172;17.196;2024-01-30T13:12:27;114.07;;;10.30;;
61569;SDS011;47462;59.172;17.196;2024-01-30T13:17:18;51.03;;;9.03;;
61569;SDS011;47462;59.172;17.196;2024-01-30T13:19:43;70.27;;;8.83;;
61569;SDS011;47462;59.172;17.196;2024-01-30T13:22:09;53.83;;;8.47;;
61569;SDS011;47462;59.172;17.196;2024-01-30T13:24:34;94.67;;;10.03;;
61569;SDS011;47462;59.172;17.196;2024-01-30T13:26:59;127.23;;;9.87;;
61569;SDS011;47462;59.172;17.196;2024-01-30T13:29:25;113.67;;;10.17;;
61569;SDS011;47462;59.172;17.196;2024-01-30T13:31:50;85.43;;;10.07;;
61569;SDS011;47462;59.172;17.196;2024-01-30T13:34:15;110.10;;;9.30;;
61569;SDS011;47462;59.172;17.196;2024-01-30T13:36:41;85.78;;;9.57;;
61569;SDS011;47462;59.172;17.196;2024-01-30T13:39:07;137.80;;;10.13;;
61569;SDS011;47462;59.172;17.196;2024-01-30T13:41:34;139.57;;;10.23;;
61569;SDS011;47462;59.172;17.196;2024-01-30T13:44:00;69.63;;;7.97;;
61569;SDS011;47462;59.172;17.196;2024-01-30T13:46:28;46.08;;;8.52;;
61569;SDS011;47462;59.172;17.196;2024-01-30T13:48:54;125.43;;;9.90;;
61569;SDS011;47462;59.172;17.196;2024-01-30T13:51:19;38.90;;;7.80;;
61569;SDS011;47462;59.172;17.196;2024-01-30T13:53:44;86.35;;;8.50;;
61569;SDS011;47462;59.172;17.196;2024-01-30T13:56:10;65.23;;;8.37;;
61569;SDS011;47462;59.172;17.196;2024-01-30T13:58:35;71.37;;;8.60;;
61569;SDS011;47462;59.172;17.196;2024-01-30T14:01:01;109.32;;;10.32;;
61569;SDS011;47462;59.172;17.196;2024-01-30T14:03:27;73.45;;;8.45;;
61569;SDS011;47462;59.172;17.196;2024-01-30T14:05:52;96.13;;;8.70;;
61569;SDS011;47462;59.172;17.196;2024-01-30T14:08:18;121.93;;;9.35;;
61569;SDS011;47462;59.172;17.196;2024-01-30T14:10:43;251.30;;;12.18;;
61569;SDS011;47462;59.172;17.196;2024-01-30T14:13:09;225.07;;;11.65;;
61569;SDS011;47462;59.172;17.196;2024-01-30T14:15:34;153.83;;;10.30;;
61569;SDS011;47462;59.172;17.196;2024-01-30T14:17:59;118.67;;;9.13;;
61569;SDS011;47462;59.172;17.196;2024-01-30T14:20:25;155.70;;;8.98;;
61569;SDS011;47462;59.172;17.196;2024-01-30T14:22:51;83.07;;;8.35;;
61569;SDS011;47462;59.172;17.196;2024-01-30T14:25:20;262.90;;;11.90;;
61569;SDS011;47462;59.172;17.196;2024-01-30T14:27:45;147.50;;;9.43;;
61569;SDS011;47462;59.172;17.196;2024-01-30T14:30:11;72.10;;;8.07;;